Time;durP1;ratioP1;P1;durP2;ratioP2;P2;SDS_P1;SDS_P2;PMS_P1;PMS_P2;Temp;Humidity;BMP_temperature;BMP_pressure;BME280_temperature;BME280_humidity;BME280_pressure;Samples;Min_cycle;Max_cycle;Signal;HPM_P1;HPM_P2
2020/12/25 00:01:47;;;;;;;4.10;3.10;;;6.50;99.90;;;;;;5066790;28;20225;-76
2020/12/25 00:04:13;;;;;;;9.02;3.20;;;6.50;99.90;;;;;;5067557;28;20257;-76
2020/12/25 00:06:40;;;;;;;3.38;2.47;;;6.50;99.90;;;;;;5060866;28;20280;-76
2020/12/25 00:09:07;;;;;;;4.93;2.65;;;6.40;99.90;;;;;;5075261;28;20200;-75
2020/12/25 00:11:34;;;;;;;5.15;3.30;;;6.40;99.90;;;;;;5071690;28;20204;-77
2020/12/25 00:14:01;;;;;;;6.72;2.83;;;6.40;99.90;;;;;;5062742;28;20769;-75
2020/12/25 00:16:28;;;;;;;3.08;2.65;;;6.50;99.90;;;;;;5069395;28;20200;-77
2020/12/25 00:18:55;;;;;;;14.05;4.03;;;6.40;99.90;;;;;;5069948;28;20219;-76
2020/12/25 00:21:22;;;;;;;5.45;3.58;;;6.40;99.90;;;;;;5069991;28;20211;-77
2020/12/25 00:23:49;;;;;;;5.90;3.00;;;6.40;99.90;;;;;;5060776;28;20587;-77
2020/12/25 00:26:24;;;;;;;4.00;3.65;;;6.40;99.90;;;;;;5062460;28;20196;-76
2020/12/25 00:28:51;;;;;;;4.70;3.00;;;6.40;99.90;;;;;;5062203;28;20196;-76
2020/12/25 00:31:25;;;;;;;4.93;2.85;;;6.40;99.90;;;;;;5061612;28;20678;-77
2020/12/25 00:33:52;;;;;;;7.90;3.15;;;6.40;99.90;;;;;;5057617;28;20307;-76
2020/12/25 00:36:29;;;;;;;7.43;3.60;;;6.40;99.90;;;;;;5068885;28;20196;-77
2020/12/25 00:38:57;;;;;;;11.93;3.30;;;6.40;99.90;;;;;;5069115;28;20211;-77
2020/12/25 00:41:23;;;;;;;4.15;3.58;;;6.40;99.90;;;;;;5065202;28;20318;-77
2020/12/25 00:43:50;;;;;;;4.68;3.50;;;6.40;99.90;;;;;;5062389;28;20189;-76
2020/12/25 00:46:17;;;;;;;5.82;3.50;;;6.40;99.90;;;;;;5069964;28;20201;-76
2020/12/25 00:48:44;;;;;;;4.40;3.72;;;6.40;99.90;;;;;;5070297;28;20201;-76
2020/12/25 00:51:13;;;;;;;4.50;3.75;;;6.40;99.90;;;;;;5065527;28;20202;-76
2020/12/25 00:53:40;;;;;;;4.90;3.70;;;6.30;99.90;;;;;;5061058;28;20253;-76
2020/12/25 00:56:07;;;;;;;3.13;2.92;;;6.30;99.90;;;;;;5065795;28;20930;-77
2020/12/25 00:58:33;;;;;;;6.97;4.03;;;6.30;99.90;;;;;;5067451;28;20198;-76
2020/12/25 01:00:59;;;;;;;7.10;3.95;;;6.30;99.90;;;;;;5067088;28;20225;-76
2020/12/25 01:03:26;;;;;;;3.80;3.25;;;6.30;99.90;;;;;;5069428;28;20202;-75
2020/12/25 01:05:52;;;;;;;3.72;3.35;;;6.30;99.90;;;;;;5065737;28;20204;-77
2020/12/25 01:08:19;;;;;;;4.72;3.00;;;6.30;99.90;;;;;;5057122;28;20663;-76
2020/12/25 01:10:46;;;;;;;5.97;3.22;;;6.20;99.90;;;;;;5066390;28;20235;-76
2020/12/25 01:13:12;;;;;;;3.15;2.75;;;6.20;99.90;;;;;;5063617;28;20225;-77
2020/12/25 01:15:39;;;;;;;6.53;3.42;;;6.20;99.90;;;;;;5062210;28;20201;-76
2020/12/25 01:18:05;;;;;;;4.50;3.55;;;6.20;99.90;;;;;;5059746;28;20198;-76
2020/12/25 01:20:33;;;;;;;4.13;3.83;;;6.20;99.90;;;;;;5074661;28;20201;-76
2020/12/25 01:22:59;;;;;;;7.63;3.72;;;6.20;99.90;;;;;;5064874;28;20193;-75
2020/12/25 01:25:26;;;;;;;8.20;3.25;;;6.20;99.90;;;;;;5061550;28;20200;-77
2020/12/25 01:27:53;;;;;;;5.93;2.95;;;6.20;99.90;;;;;;5059336;28;20213;-76
2020/12/25 01:30:19;;;;;;;5.32;3.55;;;6.10;99.90;;;;;;5067464;28;20205;-76
2020/12/25 01:32:45;;;;;;;4.20;3.00;;;6.10;99.90;;;;;;5061688;28;20197;-77
2020/12/25 01:35:12;;;;;;;10.98;3.13;;;6.10;99.90;;;;;;5067626;28;20228;-77
2020/12/25 01:37:38;;;;;;;7.78;2.58;;;6.10;99.90;;;;;;5070632;28;20283;-77
2020/12/25 01:40:05;;;;;;;7.35;3.97;;;6.20;99.90;;;;;;5068608;28;20239;-76
2020/12/25 01:42:35;;;;;;;5.90;3.20;;;6.10;99.90;;;;;;5061250;28;20212;-78
2020/12/25 01:45:01;;;;;;;4.18;3.00;;;6.10;99.90;;;;;;5062645;28;20615;-77
2020/12/25 01:47:27;;;;;;;8.68;3.20;;;6.00;99.90;;;;;;5068044;28;20802;-75
2020/12/25 01:49:54;;;;;;;12.00;3.40;;;6.00;99.90;;;;;;5062947;28;20208;-76
2020/12/25 01:52:21;;;;;;;8.93;3.15;;;6.00;99.90;;;;;;5058129;28;20287;-77
2020/12/25 01:54:48;;;;;;;8.82;3.70;;;6.00;99.90;;;;;;5059583;28;20598;-76
2020/12/25 01:57:15;;;;;;;3.33;2.60;;;6.00;99.90;;;;;;5070990;28;20261;-76
2020/12/25 01:59:43;;;;;;;8.65;2.60;;;6.00;99.90;;;;;;5071096;28;20605;-76
2020/12/25 02:02:12;;;;;;;3.03;2.72;;;5.90;99.90;;;;;;5060596;28;20232;-78
2020/12/25 02:04:38;;;;;;;10.88;2.60;;;5.90;99.90;;;;;;5069254;28;20218;-76
2020/12/25 02:07:05;;;;;;;3.72;2.83;;;5.90;99.90;;;;;;5068161;28;20204;-76
2020/12/25 02:09:31;;;;;;;3.55;2.70;;;5.90;99.90;;;;;;5064630;28;20228;-76
2020/12/25 02:11:57;;;;;;;3.33;3.05;;;5.90;99.90;;;;;;5069225;28;20292;-76
2020/12/25 02:14:24;;;;;;;5.20;2.80;;;5.90;99.90;;;;;;5063224;28;20637;-75
2020/12/25 02:16:51;;;;;;;10.05;2.67;;;5.90;99.90;;;;;;5065152;28;20196;-77
2020/12/25 02:19:17;;;;;;;5.20;3.05;;;5.90;99.90;;;;;;5062946;28;20203;-77
2020/12/25 02:21:44;;;;;;;3.85;2.63;;;5.90;99.90;;;;;;5066604;28;20197;-76
2020/12/25 02:24:11;;;;;;;3.17;2.80;;;5.80;99.90;;;;;;5068829;28;20208;-75
2020/12/25 02:26:37;;;;;;;4.00;2.50;;;5.80;99.90;;;;;;5068342;28;20205;-76
2020/12/25 02:29:04;;;;;;;5.05;2.60;;;5.70;99.90;;;;;;5062837;28;20217;-75
2020/12/25 02:31:30;;;;;;;7.95;2.25;;;5.80;99.90;;;;;;5059225;28;20201;-75
2020/12/25 02:33:56;;;;;;;3.25;2.10;;;5.80;99.90;;;;;;5061005;28;20711;-77
2020/12/25 02:36:23;;;;;;;4.75;2.95;;;5.80;99.90;;;;;;5060835;28;20193;-76
2020/12/25 02:38:50;;;;;;;2.63;2.20;;;5.80;99.90;;;;;;5064781;28;20309;-78
2020/12/25 02:41:16;;;;;;;6.43;2.90;;;5.90;99.90;;;;;;5061526;28;20200;-77
2020/12/25 02:43:43;;;;;;;3.65;2.55;;;5.90;99.90;;;;;;5063008;28;20233;-77
2020/12/25 02:46:09;;;;;;;7.63;3.00;;;5.90;99.90;;;;;;5065099;28;20208;-76
2020/12/25 02:48:36;;;;;;;6.28;2.22;;;5.90;99.90;;;;;;5072303;28;20250;-77
2020/12/25 02:51:02;;;;;;;4.93;2.50;;;6.00;99.90;;;;;;5070325;28;20208;-76
2020/12/25 02:53:29;;;;;;;2.60;2.35;;;6.00;99.90;;;;;;5066396;28;20284;-78
2020/12/25 02:55:57;;;;;;;10.07;3.47;;;6.00;99.90;;;;;;5058498;28;20208;-77
2020/12/25 02:58:23;;;;;;;5.93;2.55;;;6.00;99.90;;;;;;5067227;28;20227;-76
2020/12/25 03:00:49;;;;;;;6.90;2.60;;;6.00;99.90;;;;;;5067661;28;20224;-76
2020/12/25 03:03:16;;;;;;;5.43;2.50;;;5.90;99.90;;;;;;5068653;28;20400;-77
2020/12/25 03:05:42;;;;;;;5.72;2.47;;;5.90;99.90;;;;;;5059211;28;20664;-78
2020/12/25 03:08:08;;;;;;;4.28;3.33;;;5.90;99.90;;;;;;5065148;28;20574;-77
2020/12/25 03:10:35;;;;;;;3.25;2.47;;;5.90;99.90;;;;;;5060206;28;20348;-76
2020/12/25 03:13:02;;;;;;;7.30;3.90;;;5.90;99.90;;;;;;5070661;28;20216;-76
2020/12/25 03:15:28;;;;;;;5.88;2.90;;;5.90;99.90;;;;;;5066141;28;20225;-77
2020/12/25 03:17:55;;;;;;;3.88;2.25;;;5.80;99.90;;;;;;5068753;28;20719;-76
2020/12/25 03:20:21;;;;;;;3.65;2.13;;;5.80;99.90;;;;;;5060512;28;20735;-76
2020/12/25 03:22:47;;;;;;;6.90;2.90;;;5.80;99.90;;;;;;5068401;28;20687;-77
2020/12/25 03:25:14;;;;;;;3.53;2.47;;;5.80;99.90;;;;;;5064376;28;20204;-76
2020/12/25 03:27:40;;;;;;;5.70;2.45;;;5.80;99.90;;;;;;5067042;28;20197;-75
2020/12/25 03:30:07;;;;;;;5.90;3.10;;;5.70;99.90;;;;;;5072977;28;20211;-76
2020/12/25 03:32:34;;;;;;;7.25;2.60;;;5.70;99.90;;;;;;5067987;28;20199;-78
2020/12/25 03:35:00;;;;;;;7.65;3.30;;;5.70;99.90;;;;;;5060591;28;20232;-76
2020/12/25 03:37:26;;;;;;;6.40;2.67;;;5.70;99.90;;;;;;5067284;28;20202;-76
2020/12/25 03:39:53;;;;;;;3.92;2.22;;;5.70;99.90;;;;;;5070485;28;20648;-76
2020/12/25 03:42:19;;;;;;;8.00;2.97;;;5.70;99.90;;;;;;5064540;28;20227;-76
2020/12/25 03:44:45;;;;;;;5.18;2.92;;;5.60;99.90;;;;;;5069900;28;20207;-77
2020/12/25 03:47:12;;;;;;;13.13;3.63;;;5.60;99.90;;;;;;5063086;28;20235;-77
2020/12/25 03:49:39;;;;;;;3.30;2.75;;;5.60;99.90;;;;;;5073850;28;20620;-77
2020/12/25 03:52:05;;;;;;;8.13;3.90;;;5.60;99.90;;;;;;5074573;28;20273;-76
2020/12/25 03:54:31;;;;;;;5.10;2.90;;;5.60;99.90;;;;;;5070920;28;20219;-77
2020/12/25 03:56:57;;;;;;;8.80;3.35;;;5.60;99.90;;;;;;5062928;28;20225;-77
2020/12/25 03:59:24;;;;;;;7.43;3.40;;;5.50;99.90;;;;;;5074257;28;20189;-76
2020/12/25 04:01:50;;;;;;;4.32;3.08;;;5.60;99.90;;;;;;5063775;28;20228;-77
2020/12/25 04:04:17;;;;;;;7.32;2.75;;;5.50;99.90;;;;;;5073932;28;20682;-76
2020/12/25 04:06:43;;;;;;;9.93;2.90;;;5.50;99.90;;;;;;5061597;28;20266;-76
2020/12/25 04:09:10;;;;;;;10.32;3.78;;;5.50;99.90;;;;;;5064665;28;20203;-77
2020/12/25 04:11:36;;;;;;;2.88;2.35;;;5.40;99.90;;;;;;5061294;28;20201;-77
2020/12/25 04:14:03;;;;;;;11.38;3.42;;;5.40;99.90;;;;;;5064178;28;20217;-76
2020/12/25 04:16:30;;;;;;;22.67;4.10;;;5.40;99.90;;;;;;5067687;28;20193;-76
2020/12/25 04:18:57;;;;;;;6.82;3.10;;;5.40;99.90;;;;;;5071106;28;20252;-76
2020/12/25 04:21:25;;;;;;;11.40;3.40;;;5.40;99.90;;;;;;5064970;28;20204;-76
2020/12/25 04:23:51;;;;;;;8.20;2.85;;;5.30;99.90;;;;;;5067564;28;20196;-75
2020/12/25 04:26:18;;;;;;;6.65;3.42;;;5.30;99.90;;;;;;5064208;28;20193;-76
2020/12/25 04:28:44;;;;;;;5.38;2.75;;;5.30;99.90;;;;;;5065454;28;20198;-77
2020/12/25 04:31:11;;;;;;;9.82;2.60;;;5.20;99.90;;;;;;5069928;28;20200;-76
2020/12/25 04:33:37;;;;;;;8.57;2.38;;;5.30;99.90;;;;;;5065923;28;20228;-77
2020/12/25 04:36:04;;;;;;;6.00;2.78;;;5.20;99.90;;;;;;5061948;28;20645;-76
2020/12/25 04:38:31;;;;;;;4.85;2.83;;;5.20;99.90;;;;;;5067598;28;20275;-77
2020/12/25 04:40:58;;;;;;;5.68;2.30;;;5.20;99.90;;;;;;5073487;28;20269;-77
2020/12/25 04:43:26;;;;;;;5.28;3.05;;;5.20;99.90;;;;;;5065872;28;20193;-78
2020/12/25 04:45:53;;;;;;;9.07;2.95;;;5.20;99.90;;;;;;5064784;28;20203;-77
2020/12/25 04:48:19;;;;;;;4.78;3.55;;;5.10;99.90;;;;;;5067204;28;20223;-76
2020/12/25 04:50:46;;;;;;;4.82;2.92;;;5.10;99.90;;;;;;5065068;28;20196;-77
2020/12/25 04:53:12;;;;;;;4.10;2.35;;;5.10;99.90;;;;;;5064582;28;20660;-76
2020/12/25 04:55:39;;;;;;;12.35;3.00;;;5.10;99.90;;;;;;5064897;28;20236;-75
2020/12/25 04:58:05;;;;;;;9.32;2.97;;;5.10;99.90;;;;;;5072405;28;20225;-75
2020/12/25 05:00:32;;;;;;;3.50;2.47;;;5.10;99.90;;;;;;5063032;28;20220;-77
2020/12/25 05:02:58;;;;;;;6.18;3.42;;;5.00;99.90;;;;;;5062916;28;20243;-76
2020/12/25 05:05:29;;;;;;;13.70;4.25;;;5.00;99.90;;;;;;5063811;28;20217;-76
2020/12/25 05:07:57;;;;;;;7.90;2.53;;;5.00;99.90;;;;;;5068801;28;20212;-77
2020/12/25 05:10:23;;;;;;;5.63;2.40;;;5.00;99.90;;;;;;5065542;28;20201;-76
2020/12/25 05:12:51;;;;;;;8.40;2.58;;;5.00;99.90;;;;;;5070518;28;20205;-76
2020/12/25 05:15:17;;;;;;;5.38;3.22;;;5.00;99.90;;;;;;5066885;28;20234;-77
2020/12/25 05:17:44;;;;;;;5.43;2.67;;;5.00;99.90;;;;;;5060709;28;20675;-77
2020/12/25 05:20:11;;;;;;;9.95;3.95;;;5.00;99.90;;;;;;5065305;28;20196;-76
2020/12/25 05:22:37;;;;;;;7.03;3.35;;;5.00;99.90;;;;;;5070869;28;20683;-77
2020/12/25 05:25:06;;;;;;;7.85;2.60;;;4.90;99.90;;;;;;5065242;28;20594;-77
2020/12/25 05:27:33;;;;;;;4.15;2.20;;;4.90;99.90;;;;;;5074701;28;20290;-76
2020/12/25 05:30:01;;;;;;;3.00;2.47;;;4.90;99.90;;;;;;5066485;28;20197;-75
2020/12/25 05:32:29;;;;;;;4.57;2.63;;;4.90;99.90;;;;;;5065496;28;20667;-76
2020/12/25 05:34:57;;;;;;;3.15;2.72;;;4.90;99.90;;;;;;5060849;28;20213;-75
2020/12/25 05:37:32;;;;;;;3.30;2.80;;;4.90;99.90;;;;;;5066509;28;20206;-76
2020/12/25 05:40:03;;;;;;;3.42;2.33;;;4.90;99.90;;;;;;5070716;28;20208;-76
2020/12/25 05:42:29;;;;;;;2.03;1.92;;;4.80;99.90;;;;;;5067552;28;20200;-75
2020/12/25 05:44:55;;;;;;;2.97;2.70;;;4.80;99.90;;;;;;5070182;28;20250;-77
2020/12/25 05:47:22;;;;;;;6.25;2.25;;;4.80;99.90;;;;;;5070507;28;20284;-76
2020/12/25 05:49:49;;;;;;;7.57;2.40;;;4.80;99.90;;;;;;5068229;28;20204;-77
2020/12/25 05:52:15;;;;;;;11.77;2.90;;;4.80;99.90;;;;;;5063067;28;20659;-77
2020/12/25 05:54:45;;;;;;;7.70;3.00;;;4.70;99.90;;;;;;5060478;28;20254;-77
2020/12/25 05:57:13;;;;;;;4.55;2.35;;;4.70;99.90;;;;;;5066485;28;20225;-76
2020/12/25 05:59:45;;;;;;;3.25;2.10;;;4.70;99.90;;;;;;5067206;28;20644;-75
2020/12/25 06:02:15;;;;;;;4.63;2.47;;;4.70;99.90;;;;;;5071268;28;20224;-76
2020/12/25 06:04:43;;;;;;;2.55;2.35;;;4.70;99.90;;;;;;5071652;28;20197;-76
2020/12/25 06:07:15;;;;;;;4.78;2.50;;;4.70;99.90;;;;;;5073592;28;20803;-76
2020/12/25 06:09:45;;;;;;;9.57;3.35;;;4.70;99.90;;;;;;5068914;28;20228;-77
2020/12/25 06:12:15;;;;;;;9.00;2.42;;;4.70;99.90;;;;;;5061096;28;20252;-77
2020/12/25 06:14:41;;;;;;;3.90;2.80;;;4.70;99.90;;;;;;5063268;28;20228;-78
2020/12/25 06:17:14;;;;;;;6.38;2.40;;;4.70;99.90;;;;;;5060551;28;20200;-76
2020/12/25 06:19:46;;;;;;;4.75;3.10;;;4.70;99.90;;;;;;5058110;28;20568;-77
2020/12/25 06:22:20;;;;;;;4.78;2.80;;;4.70;99.90;;;;;;5063687;28;20200;-76
2020/12/25 06:24:47;;;;;;;3.30;2.22;;;4.70;99.90;;;;;;5055122;28;20208;-76
2020/12/25 06:27:14;;;;;;;5.97;2.65;;;4.70;99.90;;;;;;5071981;28;20202;-76
2020/12/25 06:29:42;;;;;;;6.88;2.83;;;4.70;99.90;;;;;;5060353;28;20301;-76
2020/12/25 06:32:10;;;;;;;4.45;2.45;;;4.70;99.90;;;;;;5059955;28;20200;-76
2020/12/25 06:34:44;;;;;;;6.90;2.67;;;4.70;99.90;;;;;;5056559;28;20217;-76
2020/12/25 06:37:13;;;;;;;4.28;2.53;;;4.70;99.90;;;;;;5066422;28;20200;-77
2020/12/25 06:39:50;;;;;;;5.72;2.53;;;4.70;99.90;;;;;;5071191;28;20280;-76
2020/12/25 06:42:24;;;;;;;5.55;3.50;;;4.70;99.90;;;;;;5069018;28;20203;-76
2020/12/25 06:44:51;;;;;;;2.78;2.13;;;4.70;99.90;;;;;;5060922;28;20202;-76
2020/12/25 06:47:31;;;;;;;8.05;2.70;;;4.60;99.90;;;;;;5068279;28;20200;-77
2020/12/25 06:49:58;;;;;;;3.38;2.50;;;4.60;99.90;;;;;;5068045;28;20196;-78
2020/12/25 06:52:29;;;;;;;5.82;2.70;;;4.60;99.90;;;;;;5055160;28;20196;-76
2020/12/25 06:54:56;;;;;;;2.90;2.55;;;4.60;99.90;;;;;;5065930;28;20231;-77
2020/12/25 06:57:26;;;;;;;7.43;2.58;;;4.60;99.90;;;;;;5071556;28;20706;-77
2020/12/25 06:59:53;;;;;;;2.50;2.30;;;4.60;99.90;;;;;;5067751;28;20285;-77
2020/12/25 07:02:19;;;;;;;5.97;2.75;;;4.50;99.90;;;;;;5062384;28;20228;-76
2020/12/25 07:04:49;;;;;;;4.00;2.50;;;4.50;99.90;;;;;;5069160;28;20193;-77
2020/12/25 07:07:19;;;;;;;5.93;3.15;;;4.50;99.90;;;;;;5066978;28;20216;-77
2020/12/25 07:09:47;;;;;;;5.60;2.88;;;4.50;99.90;;;;;;5063347;28;20234;-76
2020/12/25 07:12:16;;;;;;;3.75;2.65;;;4.50;99.90;;;;;;5067439;28;20204;-77
2020/12/25 07:14:43;;;;;;;4.95;3.05;;;4.50;99.90;;;;;;5062615;28;20213;-76
2020/12/25 07:17:09;;;;;;;5.15;2.15;;;4.50;99.90;;;;;;5073746;28;20192;-78
2020/12/25 07:19:36;;;;;;;3.08;2.70;;;4.50;99.90;;;;;;5065799;28;20286;-77
2020/12/25 07:22:04;;;;;;;4.57;2.80;;;4.50;99.90;;;;;;5064736;28;20247;-76
2020/12/25 07:24:32;;;;;;;3.90;2.28;;;4.50;99.90;;;;;;5073190;28;20192;-76
2020/12/25 07:26:58;;;;;;;4.38;3.00;;;4.50;99.90;;;;;;5064213;28;20547;-77
2020/12/25 07:29:24;;;;;;;2.95;2.05;;;4.50;99.90;;;;;;5063560;28;20299;-76
2020/12/25 07:31:53;;;;;;;3.00;2.70;;;4.50;99.90;;;;;;5068295;28;20630;-77
2020/12/25 07:34:20;;;;;;;5.82;3.17;;;4.50;99.90;;;;;;5067478;28;20223;-77
2020/12/25 07:36:48;;;;;;;5.15;2.75;;;4.50;99.90;;;;;;5066803;28;20204;-76
2020/12/25 07:39:14;;;;;;;6.57;2.42;;;4.50;99.90;;;;;;5070464;28;20196;-77
2020/12/25 07:41:41;;;;;;;5.82;2.25;;;4.50;99.90;;;;;;5066835;28;20192;-77
2020/12/25 07:44:08;;;;;;;4.10;2.42;;;4.50;99.90;;;;;;5062202;28;20303;-76
2020/12/25 07:46:35;;;;;;;4.78;2.35;;;4.50;99.90;;;;;;5067133;28;20206;-77
2020/12/25 07:49:02;;;;;;;4.78;2.55;;;4.50;99.90;;;;;;5070389;28;20200;-76
2020/12/25 07:51:28;;;;;;;6.35;3.05;;;4.60;99.90;;;;;;5067738;28;20189;-77
2020/12/25 07:53:56;;;;;;;10.32;5.65;;;4.60;99.90;;;;;;5072843;28;20211;-76
2020/12/25 07:56:26;;;;;;;26.38;16.00;;;4.60;99.90;;;;;;5066100;28;20203;-76
2020/12/25 07:58:53;;;;;;;10.02;5.05;;;4.60;99.90;;;;;;5068734;28;20628;-76
2020/12/25 08:01:21;;;;;;;5.18;3.60;;;4.60;99.90;;;;;;5064476;28;20742;-78
2020/12/25 08:03:47;;;;;;;4.38;2.30;;;4.60;99.90;;;;;;5068275;28;20215;-75
2020/12/25 08:06:15;;;;;;;3.20;2.35;;;4.60;99.90;;;;;;5070153;28;20663;-75
2020/12/25 08:08:45;;;;;;;7.30;2.40;;;4.60;99.90;;;;;;5070182;28;20216;-75
2020/12/25 08:11:14;;;;;;;3.45;2.40;;;4.60;99.90;;;;;;5069682;28;20207;-75
2020/12/25 08:13:42;;;;;;;2.55;2.35;;;4.70;99.90;;;;;;5069238;28;20200;-77
2020/12/25 08:16:09;;;;;;;2.85;2.65;;;4.70;99.90;;;;;;5070901;28;20201;-76
2020/12/25 08:18:36;;;;;;;2.58;2.38;;;4.70;99.90;;;;;;5077832;28;20250;-76
2020/12/25 08:21:03;;;;;;;2.47;2.28;;;4.70;99.90;;;;;;5068217;28;20201;-76
2020/12/25 08:23:34;;;;;;;4.18;2.20;;;4.70;99.90;;;;;;5074850;28;20663;-76
2020/12/25 08:26:00;;;;;;;3.58;2.30;;;4.70;99.90;;;;;;5068266;28;20192;-76
2020/12/25 08:28:30;;;;;;;3.17;2.28;;;4.70;99.90;;;;;;5069658;28;20856;-76
2020/12/25 08:30:56;;;;;;;4.07;1.90;;;4.70;99.90;;;;;;5068936;28;20198;-75
2020/12/25 08:33:25;;;;;;;7.57;2.58;;;4.70;99.90;;;;;;5073860;28;20196;-76
2020/12/25 08:35:51;;;;;;;3.55;2.30;;;4.70;99.90;;;;;;5075516;28;20224;-77
2020/12/25 08:38:18;;;;;;;7.03;2.80;;;4.70;99.90;;;;;;5074236;28;20220;-78
2020/12/25 08:40:45;;;;;;;6.15;2.65;;;4.70;99.90;;;;;;5070067;28;20203;-76
2020/12/25 08:43:15;;;;;;;2.97;2.70;;;4.70;99.90;;;;;;5063831;28;20204;-76
2020/12/25 08:45:54;;;;;;;3.38;3.05;;;4.70;99.90;;;;;;5061535;28;20197;-77
2020/12/25 08:48:21;;;;;;;2.97;2.75;;;4.70;99.90;;;;;;5074656;28;20293;-76
2020/12/25 08:50:49;;;;;;;4.88;2.80;;;4.70;99.90;;;;;;5071702;28;20196;-76
2020/12/25 08:53:18;;;;;;;6.05;2.72;;;4.70;99.90;;;;;;5072790;28;20204;-76
2020/12/25 08:55:46;;;;;;;5.45;2.25;;;4.70;99.90;;;;;;5067937;28;20227;-77
2020/12/25 08:58:16;;;;;;;3.50;3.20;;;4.70;99.90;;;;;;5070569;28;20223;-77
2020/12/25 09:00:42;;;;;;;3.35;2.35;;;4.70;99.90;;;;;;5069058;28;20224;-77
2020/12/25 09:03:08;;;;;;;9.60;2.78;;;4.70;99.90;;;;;;5067988;28;20195;-79
2020/12/25 09:05:35;;;;;;;19.45;13.00;;;4.70;99.90;;;;;;5065513;28;20206;-76
2020/12/25 09:08:02;;;;;;;13.20;4.57;;;4.70;99.90;;;;;;5066398;28;20599;-81
2020/12/25 09:10:29;;;;;;;5.70;4.53;;;4.70;99.90;;;;;;5069227;28;20201;-76
2020/12/25 09:12:55;;;;;;;2.72;2.53;;;4.70;99.90;;;;;;5073112;28;20207;-78
2020/12/25 09:15:21;;;;;;;4.57;2.22;;;4.80;99.90;;;;;;5070604;28;20307;-78
2020/12/25 09:17:48;;;;;;;5.20;2.90;;;4.80;99.90;;;;;;5066635;28;20211;-78
2020/12/25 09:20:14;;;;;;;2.67;1.98;;;4.80;99.90;;;;;;5074129;28;20201;-78
2020/12/25 09:22:41;;;;;;;11.85;2.60;;;4.90;99.90;;;;;;5064208;28;20283;-80
2020/12/25 09:25:08;;;;;;;2.30;1.95;;;4.90;99.90;;;;;;5070656;28;20209;-82
2020/12/25 09:27:35;;;;;;;3.75;2.50;;;4.90;99.90;;;;;;5063729;28;20201;-79
2020/12/25 09:30:02;;;;;;;7.00;2.40;;;5.00;99.90;;;;;;5061865;28;20196;-80
2020/12/25 09:32:29;;;;;;;2.90;2.50;;;5.00;99.90;;;;;;5057043;28;20220;-82
2020/12/25 09:34:55;;;;;;;8.60;3.60;;;5.10;99.90;;;;;;5069965;28;20225;-83
2020/12/25 09:37:25;;;;;;;8.73;2.58;;;5.10;99.90;;;;;;5060747;28;20208;-82
2020/12/25 09:39:51;;;;;;;3.20;2.83;;;5.20;99.90;;;;;;5070672;28;20207;-80
2020/12/25 09:42:18;;;;;;;4.18;2.85;;;5.20;99.90;;;;;;5059568;28;20600;-83
2020/12/25 09:44:44;;;;;;;5.03;2.22;;;5.20;99.90;;;;;;5067203;28;20219;-84
2020/12/25 09:47:11;;;;;;;3.85;2.00;;;5.20;99.90;;;;;;5067166;28;20199;-83
2020/12/25 09:49:37;;;;;;;8.48;2.55;;;5.20;99.90;;;;;;5077206;28;20240;-79
2020/12/25 09:52:04;;;;;;;8.23;2.70;;;5.20;99.90;;;;;;5071022;28;20235;-79
2020/12/25 09:54:31;;;;;;;3.58;2.00;;;5.30;99.90;;;;;;5066552;28;20264;-84
2020/12/25 09:56:57;;;;;;;9.82;2.60;;;5.30;99.90;;;;;;5057433;28;20290;-82
2020/12/25 09:59:25;;;;;;;4.10;2.17;;;5.30;99.90;;;;;;5063242;28;20205;-81
2020/12/25 10:01:52;;;;;;;3.78;3.00;;;5.40;99.90;;;;;;5068705;28;20228;-80
2020/12/25 10:04:18;;;;;;;3.70;2.78;;;5.40;99.90;;;;;;5071983;28;20199;-80
2020/12/25 10:06:44;;;;;;;2.40;2.20;;;5.40;99.90;;;;;;5058384;28;20199;-81
2020/12/25 10:09:11;;;;;;;4.90;2.50;;;5.50;99.90;;;;;;5066186;28;20280;-82
2020/12/25 10:11:37;;;;;;;5.45;2.55;;;5.50;99.90;;;;;;5056896;28;20666;-79
2020/12/25 10:14:04;;;;;;;5.32;2.47;;;5.50;99.90;;;;;;5068652;28;20209;-75
2020/12/25 10:16:31;;;;;;;5.07;2.17;;;5.60;99.90;;;;;;5066957;28;20196;-77
2020/12/25 10:18:57;;;;;;;5.70;2.50;;;5.60;99.90;;;;;;5065868;28;20196;-74
2020/12/25 10:21:24;;;;;;;13.93;10.10;;;5.60;99.90;;;;;;5059918;28;20195;-77
2020/12/25 10:23:50;;;;;;;14.88;9.23;;;5.60;99.90;;;;;;5055114;28;20193;-77
2020/12/25 10:26:17;;;;;;;5.60;2.75;;;5.70;99.90;;;;;;5062959;28;20468;-76
2020/12/25 10:28:43;;;;;;;3.97;2.53;;;5.70;99.90;;;;;;5064790;28;20208;-76
2020/12/25 10:31:09;;;;;;;8.57;2.35;;;5.70;99.90;;;;;;5008931;22;20242;-64
2020/12/25 10:33:38;;;;;;;3.20;2.15;;;5.70;99.90;;;;;;4973976;28;20214;-64
2020/12/25 10:36:05;;;;;;;6.60;2.97;;;5.70;99.90;;;;;;4970241;28;20297;-64
2020/12/25 10:38:31;;;;;;;6.85;2.53;;;5.80;99.90;;;;;;4975234;28;20199;-64
2020/12/25 10:40:57;;;;;;;4.90;2.20;;;5.80;99.90;;;;;;4973188;28;20533;-64
2020/12/25 10:43:23;;;;;;;5.80;2.10;;;5.80;99.90;;;;;;4990867;28;20203;-64
2020/12/25 10:45:52;;;;;;;5.93;2.35;;;5.80;99.90;;;;;;4980820;28;20262;-64
2020/12/25 10:48:18;;;;;;;3.15;2.53;;;5.80;99.90;;;;;;4979980;28;20207;-64
2020/12/25 10:50:46;;;;;;;6.80;2.15;;;5.80;99.90;;;;;;4986225;28;20256;-64
2020/12/25 10:53:12;;;;;;;3.58;2.20;;;5.80;99.90;;;;;;4977552;28;20273;-64
2020/12/25 10:55:38;;;;;;;3.58;3.05;;;5.80;99.90;;;;;;4977024;28;20257;-64
2020/12/25 10:58:04;;;;;;;5.95;2.53;;;5.80;99.90;;;;;;4980451;28;20722;-64
2020/12/25 11:00:31;;;;;;;3.08;1.95;;;5.80;99.90;;;;;;4972000;28;20214;-64
2020/12/25 11:02:57;;;;;;;2.53;2.30;;;5.70;99.90;;;;;;4984182;28;20215;-64
2020/12/25 11:05:23;;;;;;;6.32;2.35;;;5.70;99.90;;;;;;4980228;28;20200;-64
2020/12/25 11:07:50;;;;;;;4.75;2.80;;;5.70;99.90;;;;;;4982667;28;20658;-63
2020/12/25 11:10:16;;;;;;;12.02;2.85;;;5.70;99.90;;;;;;4984291;28;20871;-63
2020/12/25 11:12:43;;;;;;;7.18;2.30;;;5.80;99.90;;;;;;4981565;28;20918;-64
2020/12/25 11:15:09;;;;;;;6.45;2.90;;;5.80;99.90;;;;;;4975083;28;20220;-64
2020/12/25 11:17:35;;;;;;;3.85;2.67;;;5.80;99.90;;;;;;4977125;28;20203;-64
2020/12/25 11:20:01;;;;;;;3.22;2.30;;;5.80;99.90;;;;;;4976140;28;20253;-64
2020/12/25 11:22:27;;;;;;;5.30;3.13;;;5.80;99.90;;;;;;4976758;28;20234;-64
2020/12/25 11:24:54;;;;;;;2.63;2.42;;;5.80;99.90;;;;;;4972931;28;20203;-64
2020/12/25 11:27:21;;;;;;;3.85;2.40;;;5.80;99.90;;;;;;4981619;28;20231;-64
2020/12/25 11:29:47;;;;;;;4.30;2.88;;;5.90;99.90;;;;;;4981679;28;20326;-64
2020/12/25 11:32:13;;;;;;;3.30;2.60;;;5.90;99.90;;;;;;4980509;28;20208;-64
2020/12/25 11:34:39;;;;;;;4.05;2.58;;;5.90;99.90;;;;;;4978433;28;20219;-64
2020/12/25 11:37:06;;;;;;;7.47;2.95;;;5.90;99.90;;;;;;4980756;28;20207;-64
2020/12/25 11:39:32;;;;;;;2.50;2.30;;;5.90;99.90;;;;;;4977882;28;20300;-64
2020/12/25 11:42:00;;;;;;;8.98;2.75;;;5.90;99.90;;;;;;4985826;28;20821;-64
2020/12/25 11:44:26;;;;;;;7.85;3.20;;;5.90;99.90;;;;;;4991461;28;20208;-64
2020/12/25 11:46:57;;;;;;;7.28;3.08;;;5.90;99.90;;;;;;4978986;28;20207;-64
2020/12/25 11:49:24;;;;;;;7.95;2.70;;;6.00;99.90;;;;;;4978600;28;20200;-64
2020/12/25 11:51:53;;;;;;;8.57;2.90;;;6.00;99.90;;;;;;4974215;28;20238;-64
2020/12/25 11:54:19;;;;;;;3.20;2.72;;;6.10;99.90;;;;;;4976872;28;20238;-64
2020/12/25 11:56:45;;;;;;;6.22;3.25;;;6.10;99.90;;;;;;4977771;28;20211;-64
2020/12/25 11:59:12;;;;;;;5.72;2.45;;;6.20;99.90;;;;;;4984584;28;20210;-64
2020/12/25 12:01:38;;;;;;;5.63;2.30;;;6.20;99.90;;;;;;4982271;28;20203;-64
2020/12/25 12:04:04;;;;;;;7.00;2.50;;;6.20;99.90;;;;;;4982429;28;20215;-64
2020/12/25 12:06:31;;;;;;;10.00;2.53;;;6.20;99.90;;;;;;4979830;28;20218;-64
2020/12/25 12:08:57;;;;;;;5.50;2.92;;;6.20;99.90;;;;;;4982669;28;20199;-64
2020/12/25 12:11:23;;;;;;;3.97;2.95;;;6.20;99.90;;;;;;4982993;28;20286;-64
2020/12/25 12:13:49;;;;;;;7.63;2.50;;;6.30;99.90;;;;;;4978738;28;20207;-64
2020/12/25 12:16:20;;;;;;;5.93;2.92;;;6.30;99.90;;;;;;4977880;28;20696;-64
2020/12/25 12:18:47;;;;;;;5.43;2.60;;;6.30;99.90;;;;;;4979136;28;20207;-64
2020/12/25 12:21:14;;;;;;;6.65;2.40;;;6.30;99.90;;;;;;4974401;28;20195;-64
2020/12/25 12:23:40;;;;;;;8.68;2.80;;;6.30;99.90;;;;;;4977551;28;20208;-64
2020/12/25 12:26:06;;;;;;;8.15;2.40;;;6.30;99.90;;;;;;4976218;28;20199;-64
2020/12/25 12:28:33;;;;;;;4.65;2.70;;;6.30;99.90;;;;;;4976421;28;20214;-64
2020/12/25 12:30:59;;;;;;;5.47;2.60;;;6.40;99.90;;;;;;4977391;28;20235;-64
2020/12/25 12:33:26;;;;;;;5.45;2.92;;;6.30;99.90;;;;;;4976208;28;20207;-64
2020/12/25 12:35:52;;;;;;;7.80;2.15;;;6.40;99.90;;;;;;4970789;28;20223;-64
2020/12/25 12:38:19;;;;;;;10.27;2.58;;;6.40;99.90;;;;;;4976991;28;20824;-64
2020/12/25 12:40:45;;;;;;;14.02;2.67;;;6.40;99.90;;;;;;4981240;28;20211;-64
2020/12/25 12:43:11;;;;;;;6.97;2.63;;;6.40;99.90;;;;;;4978788;28;20734;-64
2020/12/25 12:45:38;;;;;;;3.88;2.65;;;6.50;99.90;;;;;;4974769;28;20829;-64
2020/12/25 12:48:04;;;;;;;6.85;3.15;;;6.50;99.90;;;;;;4979774;28;20208;-64
2020/12/25 12:50:31;;;;;;;2.25;2.05;;;6.50;99.90;;;;;;4980442;28;20238;-64
2020/12/25 12:52:57;;;;;;;5.47;2.42;;;6.60;99.90;;;;;;4979152;28;20204;-64
2020/12/25 12:55:23;;;;;;;3.88;2.50;;;6.60;99.90;;;;;;4976328;28;20593;-64